Time;durP1;ratioP1;P1;durP2;ratioP2;P2;SDS_P1;SDS_P2;PMS_P1;PMS_P2;Temp;Humidity;BMP_temperature;BMP_pressure;BME280_temperature;BME280_humidity;BME280_pressure;Samples;Min_cycle;Max_cycle;Signal;HPM_P1;HPM_P2
2022/02/15 00:02:02;;;;;;;1.00;0.90;;;;;;;12.31;50.31;96766.69;5110974;28;20877;-68
2022/02/15 00:04:27;;;;;;;1.03;0.90;;;;;;;12.37;50.17;96756.31;5101309;28;20181;-68
2022/02/15 00:06:53;;;;;;;2.00;1.10;;;;;;;12.32;50.55;96768.34;5110752;28;20961;-67
2022/02/15 00:09:18;;;;;;;1.20;0.90;;;;;;;12.31;50.00;96764.91;5110625;28;20288;-67
2022/02/15 00:11:44;;;;;;;1.10;1.00;;;;;;;12.29;50.26;96764.25;5110885;28;20231;-67
2022/02/15 00:14:09;;;;;;;1.33;1.20;;;;;;;12.33;50.34;96762.91;5111026;28;20661;-67
2022/02/15 00:16:35;;;;;;;1.63;1.03;;;;;;;12.36;50.05;96764.38;5101483;28;20193;-67
2022/02/15 00:19:00;;;;;;;2.03;1.00;;;;;;;12.33;50.35;96760.28;5116710;28;20204;-69
2022/02/15 00:21:26;;;;;;;1.30;1.00;;;;;;;12.35;50.01;96758.28;5114666;28;20219;-68
2022/02/15 00:23:51;;;;;;;2.60;1.20;;;;;;;12.29;50.38;96769.50;5114487;28;20185;-69
2022/02/15 00:26:17;;;;;;;1.63;1.40;;;;;;;12.26;50.38;96765.44;5114583;28;20233;-69
2022/02/15 00:28:42;;;;;;;1.60;1.20;;;;;;;12.30;50.58;96768.53;5114019;28;20189;-69
2022/02/15 00:31:08;;;;;;;3.43;1.83;;;;;;;12.28;50.37;96768.69;5114238;28;20177;-69
2022/02/15 00:33:33;;;;;;;2.53;1.70;;;;;;;12.31;50.30;96767.53;5114208;28;20737;-70
2022/02/15 00:35:59;;;;;;;2.23;1.43;;;;;;;12.25;50.59;96757.69;5114309;28;20177;-69
2022/02/15 00:38:25;;;;;;;2.67;1.47;;;;;;;12.18;50.65;96759.41;5113998;28;20192;-69
2022/02/15 00:40:51;;;;;;;1.70;1.20;;;;;;;12.06;50.88;96757.16;5105820;28;20209;-69
2022/02/15 00:43:16;;;;;;;1.33;1.23;;;;;;;12.00;51.04;96764.91;5114563;28;20933;-69
2022/02/15 00:45:41;;;;;;;1.37;1.27;;;;;;;12.08;50.93;96763.06;5113925;28;20181;-69
2022/02/15 00:48:07;;;;;;;1.60;1.50;;;;;;;12.11;50.86;96764.53;5120236;27;20633;-69
2022/02/15 00:50:33;;;;;;;4.70;1.37;;;;;;;12.13;50.50;96750.22;5113627;28;20289;-70
2022/02/15 00:52:58;;;;;;;4.40;1.70;;;;;;;12.17;50.84;96755.94;5113751;28;20249;-69
2022/02/15 00:55:23;;;;;;;1.53;1.43;;;;;;;12.14;50.78;96756.31;5113900;28;20180;-69
2022/02/15 00:57:49;;;;;;;1.50;1.40;;;;;;;12.13;50.60;96760.72;5113386;28;20665;-69
2022/02/15 01:00:15;;;;;;;2.00;1.60;;;;;;;12.14;50.72;96764.19;5115951;28;20204;-69
2022/02/15 01:02:40;;;;;;;1.83;1.43;;;;;;;12.18;50.80;96770.72;5117523;28;20238;-70
2022/02/15 01:05:06;;;;;;;1.97;1.57;;;;;;;12.18;51.01;96769.91;5104131;28;20624;-69
2022/02/15 01:07:32;;;;;;;2.00;1.30;;;;;;;12.11;50.53;96777.66;5104523;28;20548;-69
2022/02/15 01:09:58;;;;;;;3.00;1.87;;;;;;;12.07;50.91;96774.56;5114173;28;20446;-69
2022/02/15 01:12:24;;;;;;;2.23;1.50;;;;;;;11.93;50.90;96785.75;5114467;28;20295;-69
2022/02/15 01:14:50;;;;;;;4.10;1.80;;;;;;;11.90;51.07;96786.09;5113865;28;20186;-69
2022/02/15 01:17:15;;;;;;;1.60;1.50;;;;;;;11.89;50.48;96784.44;5113644;27;20503;-69
2022/02/15 01:19:40;;;;;;;1.80;1.40;;;;;;;11.82;51.28;96790.41;5113150;28;20211;-70
2022/02/15 01:22:07;;;;;;;1.83;1.53;;;;;;;11.91;51.31;96782.47;5114190;28;20174;-69
2022/02/15 01:24:32;;;;;;;2.20;1.43;;;;;;;11.87;50.99;96787.25;5113731;28;20184;-69
2022/02/15 01:26:58;;;;;;;1.90;1.50;;;;;;;11.77;50.90;96779.59;5113644;28;20493;-69
2022/02/15 01:29:23;;;;;;;1.73;1.47;;;;;;;11.80;50.91;96784.50;5113088;28;20201;-72
2022/02/15 01:31:49;;;;;;;1.67;1.53;;;;;;;11.78;51.33;96781.22;5112321;28;20184;-69
2022/02/15 01:34:15;;;;;;;3.13;1.83;;;;;;;11.84;51.04;96782.34;5113172;28;20196;-69
2022/02/15 01:36:40;;;;;;;4.67;1.57;;;;;;;11.79;51.21;96782.84;5113051;28;20268;-70
2022/02/15 01:39:06;;;;;;;1.40;1.30;;;;;;;11.84;51.06;96783.16;5112753;28;20212;-69
2022/02/15 01:41:31;;;;;;;2.47;1.60;;;;;;;11.87;50.93;96781.19;5112823;28;20221;-69
2022/02/15 01:43:57;;;;;;;1.80;1.40;;;;;;;11.85;51.04;96781.34;5112693;28;20191;-69
2022/02/15 01:46:22;;;;;;;3.83;1.73;;;;;;;11.87;50.84;96781.19;5113239;28;20642;-69
2022/02/15 01:48:48;;;;;;;2.33;1.57;;;;;;;11.82;50.60;96779.91;5118412;27;20297;-69
2022/02/15 01:51:14;;;;;;;1.73;1.50;;;;;;;11.80;50.56;96779.25;5113025;28;20192;-69
2022/02/15 01:53:40;;;;;;;3.10;2.10;;;;;;;11.73;51.12;96765.16;5112624;28;20246;-69
2022/02/15 01:56:08;;;;;;;4.40;1.40;;;;;;;11.67;51.19;96766.66;5112736;28;20419;-69
2022/02/15 01:58:34;;;;;;;3.20;1.87;;;;;;;11.74;51.10;96766.78;5096363;28;20193;-68
2022/02/15 02:01:00;;;;;;;1.97;1.60;;;;;;;11.71;50.81;96776.81;5112606;28;20480;-68
2022/02/15 02:03:25;;;;;;;2.60;1.80;;;;;;;11.73;51.06;96766.97;5112660;28;20189;-68
2022/02/15 02:05:51;;;;;;;2.50;1.70;;;;;;;11.77;50.89;96768.28;5112870;28;20181;-69
2022/02/15 02:08:22;;;;;;;1.93;1.57;;;;;;;11.75;50.90;96771.06;5112248;28;20185;-68
2022/02/15 02:10:48;;;;;;;1.87;1.60;;;;;;;11.81;51.05;96767.75;5112168;28;20240;-68
2022/02/15 02:13:14;;;;;;;1.70;1.60;;;;;;;11.81;50.96;96775.63;5112948;28;20504;-68
2022/02/15 02:15:42;;;;;;;2.17;1.67;;;;;;;11.84;50.92;96780.53;5113002;28;20466;-68
2022/02/15 02:18:07;;;;;;;1.73;1.63;;;;;;;11.87;50.74;96775.94;5118307;27;20428;-68
2022/02/15 02:20:33;;;;;;;4.17;1.63;;;;;;;11.84;50.61;96771.84;5102993;28;20899;-68
2022/02/15 02:22:58;;;;;;;2.60;1.73;;;;;;;11.82;50.64;96771.19;5113100;28;20181;-69
2022/02/15 02:25:24;;;;;;;2.57;1.53;;;;;;;11.77;50.54;96766.44;5113795;28;20317;-68
2022/02/15 02:27:50;;;;;;;2.80;1.70;;;;;;;11.73;50.38;96759.91;5112494;28;20188;-68
2022/02/15 02:30:16;;;;;;;2.03;1.67;;;;;;;11.57;51.08;96765.22;5113579;28;20201;-68
2022/02/15 02:32:41;;;;;;;2.37;1.80;;;;;;;11.55;50.95;96767.19;5113548;28;20431;-69
2022/02/15 02:35:08;;;;;;;1.33;1.23;;;;;;;11.51;51.38;96772.78;5113800;28;20173;-69
2022/02/15 02:37:34;;;;;;;2.43;1.60;;;;;;;11.49;51.20;96774.75;5113686;28;20261;-69
2022/02/15 02:40:03;;;;;;;2.00;1.47;;;;;;;11.52;51.50;96776.22;5113637;28;20997;-69
2022/02/15 02:42:29;;;;;;;3.67;1.73;;;;;;;11.46;51.41;96782.97;5112746;28;20433;-69
2022/02/15 02:45:00;;;;;;;1.60;1.50;;;;;;;11.46;51.65;96771.66;5113594;28;20488;-68
2022/02/15 02:47:25;;;;;;;3.10;2.00;;;;;;;11.37;51.31;96770.84;5113013;28;20495;-68
2022/02/15 02:49:52;;;;;;;2.40;1.70;;;;;;;11.28;51.28;96783.16;5113315;28;20853;-68
2022/02/15 02:52:18;;;;;;;4.30;1.47;;;;;;;11.29;51.84;96773.50;5112892;28;20181;-68
2022/02/15 02:54:44;;;;;;;1.93;1.60;;;;;;;11.28;51.67;96788.41;5112607;28;20430;-68
2022/02/15 02:57:12;;;;;;;2.00;1.80;;;;;;;11.33;51.44;96778.25;5114419;28;20442;-68
2022/02/15 02:59:41;;;;;;;2.37;1.60;;;;;;;11.39;51.54;96784.63;5114675;28;20208;-69
2022/02/15 03:02:08;;;;;;;1.83;1.63;;;;;;;11.39;51.30;96784.63;5111704;28;20788;-69
2022/02/15 03:04:34;;;;;;;2.30;1.63;;;;;;;11.43;51.39;96791.19;5111325;28;20433;-69
2022/02/15 03:07:00;;;;;;;4.00;1.73;;;;;;;11.42;51.38;96784.28;5111596;28;20423;-68
2022/02/15 03:09:25;;;;;;;2.63;1.67;;;;;;;11.41;51.29;96790.53;5110753;28;20500;-71
2022/02/15 03:11:51;;;;;;;5.83;2.03;;;;;;;11.39;51.14;96787.25;5111722;28;20176;-70
2022/02/15 03:14:17;;;;;;;2.77;1.33;;;;;;;11.41;51.27;96789.69;5110887;28;20278;-70
2022/02/15 03:16:43;;;;;;;2.53;1.60;;;;;;;11.41;51.69;96798.41;5111305;28;20649;-70
2022/02/15 03:19:08;;;;;;;3.63;1.73;;;;;;;11.41;51.43;96795.78;5117228;27;20431;-69
2022/02/15 03:21:34;;;;;;;3.50;1.80;;;;;;;11.41;51.36;96789.69;5111713;28;20228;-69
2022/02/15 03:24:00;;;;;;;1.60;1.40;;;;;;;11.45;51.32;96804.94;5110919;28;20203;-68
2022/02/15 03:26:25;;;;;;;3.40;1.60;;;;;;;11.48;50.61;96798.53;5111201;28;20196;-69
2022/02/15 03:28:51;;;;;;;4.50;2.17;;;;;;;11.49;51.04;96801.00;5110854;28;20439;-69
2022/02/15 03:31:16;;;;;;;1.90;1.60;;;;;;;11.55;50.85;96793.44;5111449;28;20188;-69
2022/02/15 03:33:42;;;;;;;6.30;2.00;;;;;;;11.39;51.09;96805.59;5111231;28;20181;-69
2022/02/15 03:36:07;;;;;;;3.03;1.60;;;;;;;11.37;51.21;96802.31;5111583;28;20717;-69
2022/02/15 03:38:33;;;;;;;3.80;1.60;;;;;;;11.44;50.89;96813.81;5110597;28;20538;-68
2022/02/15 03:43:42;;;;;;;3.20;1.57;;;;;;;11.53;50.60;96810.16;5110973;28;20263;-69
2022/02/15 03:46:08;;;;;;;4.17;1.70;;;;;;;11.58;50.31;96809.66;5110884;28;20498;-69
2022/02/15 03:48:34;;;;;;;3.87;1.60;;;;;;;11.56;50.46;96811.63;5110413;28;20221;-69
2022/02/15 03:50:59;;;;;;;2.77;1.80;;;;;;;11.52;50.42;96818.22;5111158;28;20203;-68
2022/02/15 03:53:25;;;;;;;5.03;1.77;;;;;;;11.45;50.75;96818.06;5110899;28;20698;-69
2022/02/15 03:55:51;;;;;;;3.73;2.03;;;;;;;11.48;51.01;96822.97;5113829;28;20191;-68
2022/02/15 03:58:16;;;;;;;2.40;1.40;;;;;;;11.49;50.79;96821.19;5114542;28;20204;-68
2022/02/15 04:00:42;;;;;;;3.77;1.50;;;;;;;11.34;51.02;96828.91;5113726;28;20204;-69
2022/02/15 04:03:07;;;;;;;15.97;1.60;;;;;;;11.36;51.00;96832.16;5111685;27;20700;-69
2022/02/15 04:05:33;;;;;;;3.03;1.30;;;;;;;11.44;50.86;96826.09;5109926;27;20189;-68
2022/02/15 04:07:58;;;;;;;2.43;1.40;;;;;;;11.40;51.08;96838.72;5108299;27;20206;-68
2022/02/15 04:10:24;;;;;;;3.20;1.30;;;;;;;11.45;50.89;96839.06;5114489;28;20209;-68
2022/02/15 04:12:50;;;;;;;3.90;1.60;;;;;;;11.46;50.39;96838.09;5113755;28;20671;-69
2022/02/15 04:15:18;;;;;;;3.73;1.60;;;;;;;11.45;50.82;96841.69;5115180;28;20676;-68
2022/02/15 04:17:43;;;;;;;4.03;1.50;;;;;;;11.52;50.85;96842.66;5115100;28;20193;-68
2022/02/15 04:20:09;;;;;;;1.60;1.43;;;;;;;11.56;50.84;96842.31;5113289;28;20462;-68
2022/02/15 04:22:35;;;;;;;2.80;1.43;;;;;;;11.55;50.55;96841.47;5114337;28;20189;-69
2022/02/15 04:25:00;;;;;;;4.00;1.60;;;;;;;11.52;50.63;96840.03;5114662;28;21144;-69
2022/02/15 04:27:27;;;;;;;3.40;1.70;;;;;;;11.56;50.63;96837.06;5113088;28;20230;-69
2022/02/15 04:29:52;;;;;;;3.00;1.70;;;;;;;11.47;50.52;96847.56;5113615;28;20539;-69
2022/02/15 04:32:18;;;;;;;3.27;1.63;;;;;;;11.49;50.75;96858.72;5114080;28;20421;-69
2022/02/15 04:34:43;;;;;;;1.93;1.47;;;;;;;11.51;50.74;96861.19;5113694;28;20192;-68
2022/02/15 04:37:09;;;;;;;2.13;1.47;;;;;;;11.56;50.32;96860.69;5112791;28;20181;-68
2022/02/15 04:39:34;;;;;;;5.50;1.57;;;;;;;11.56;50.46;96874.63;5113096;28;20321;-68
2022/02/15 04:41:59;;;;;;;3.63;1.70;;;;;;;11.44;50.84;96876.78;5112892;28;20205;-69
2022/02/15 04:44:25;;;;;;;2.07;1.60;;;;;;;11.32;50.53;96872.84;5113596;28;20185;-69
2022/02/15 04:46:50;;;;;;;4.60;1.90;;;;;;;11.33;50.80;96871.88;5113753;28;20196;-68
2022/02/15 04:49:16;;;;;;;3.50;2.20;;;;;;;11.30;50.97;96875.63;5111870;28;20197;-69
2022/02/15 04:51:41;;;;;;;2.63;1.93;;;;;;;11.27;50.90;96873.34;5112513;28;20558;-68
2022/02/15 04:54:07;;;;;;;1.80;1.70;;;;;;;11.17;51.19;96877.94;5114204;28;20184;-69
2022/02/15 04:56:33;;;;;;;3.23;2.27;;;;;;;11.14;51.37;96881.72;5113177;27;20242;-69
2022/02/15 04:58:58;;;;;;;4.30;2.60;;;;;;;11.24;51.26;96880.72;5113037;28;20859;-69
2022/02/15 05:01:24;;;;;;;2.37;2.20;;;;;;;11.16;51.08;96877.13;5112203;28;20216;-69
2022/02/15 05:03:49;;;;;;;3.73;2.27;;;;;;;11.20;51.34;96890.72;5113755;28;20181;-69
2022/02/15 05:06:15;;;;;;;3.90;2.53;;;;;;;11.04;51.42;96884.47;5112058;28;20818;-69
2022/02/15 05:08:40;;;;;;;4.10;2.77;;;;;;;11.16;51.04;96890.22;5111885;28;20314;-69
2022/02/15 05:11:06;;;;;;;9.23;2.53;;;;;;;11.19;50.93;96887.28;5112671;28;20169;-69
2022/02/15 05:13:31;;;;;;;2.90;2.50;;;;;;;11.09;51.55;96894.47;5112691;28;20400;-69
2022/02/15 05:15:57;;;;;;;3.23;2.57;;;;;;;11.13;51.25;96892.38;5113025;28;20186;-69
2022/02/15 05:18:22;;;;;;;4.43;2.30;;;;;;;11.03;51.41;96900.38;5112644;28;20264;-69
2022/02/15 05:20:48;;;;;;;3.60;2.47;;;;;;;11.10;51.67;96896.13;5111871;28;20209;-69
2022/02/15 05:23:13;;;;;;;3.53;2.33;;;;;;;11.04;51.27;96894.97;5112904;28;20188;-69
2022/02/15 05:25:39;;;;;;;2.43;2.23;;;;;;;11.05;51.79;96901.84;5112563;28;20335;-69
2022/02/15 05:28:05;;;;;;;3.93;2.17;;;;;;;11.17;51.56;96899.75;5111465;28;20206;-67
2022/02/15 05:30:30;;;;;;;4.33;2.10;;;;;;;11.18;51.54;96892.69;5112476;28;20590;-67
2022/02/15 05:32:56;;;;;;;3.10;1.90;;;;;;;11.27;51.40;96896.13;5112879;28;20179;-67
2022/02/15 05:35:22;;;;;;;3.83;2.03;;;;;;;11.17;51.48;96897.13;5113046;28;20184;-69
2022/02/15 05:37:48;;;;;;;3.53;1.97;;;;;;;11.23;51.60;96895.66;5111193;28;20192;-69
2022/02/15 05:40:14;;;;;;;2.17;1.90;;;;;;;11.14;51.70;96901.88;5112728;28;20470;-69
2022/02/15 05:42:40;;;;;;;2.27;1.53;;;;;;;11.15;51.47;96909.56;5112090;28;20185;-69
2022/02/15 05:45:06;;;;;;;2.10;1.90;;;;;;;11.04;51.83;96912.53;5113132;28;21006;-69
2022/02/15 05:47:31;;;;;;;4.00;1.90;;;;;;;11.00;51.94;96911.19;5112428;28;20457;-69
2022/02/15 05:52:41;;;;;;;2.20;1.97;;;;;;;11.12;51.77;96912.50;5112434;28;20258;-68
2022/02/15 05:55:07;;;;;;;4.20;2.00;;;;;;;11.04;52.04;96921.19;5112280;27;20930;-68
2022/02/15 05:57:33;;;;;;;3.63;1.97;;;;;;;10.71;52.45;96915.91;5111791;28;20204;-69
2022/02/15 05:59:59;;;;;;;2.90;1.93;;;;;;;10.91;52.53;96907.72;5102573;28;20484;-69
2022/02/15 06:02:24;;;;;;;3.17;2.40;;;;;;;10.90;52.17;96919.19;5112758;28;20185;-69
2022/02/15 06:04:50;;;;;;;2.77;1.80;;;;;;;10.85;52.40;96919.69;5101775;28;20214;-68
2022/02/15 06:07:15;;;;;;;2.87;2.20;;;;;;;10.95;52.43;96914.31;5109576;28;20181;-68
2022/02/15 06:09:41;;;;;;;4.83;1.83;;;;;;;10.89;52.32;96926.25;5101448;28;20302;-68
2022/02/15 06:12:07;;;;;;;3.80;2.10;;;;;;;10.81;52.85;96928.03;5111976;28;20236;-68
2022/02/15 06:14:32;;;;;;;2.47;2.00;;;;;;;10.88;52.20;96929.84;5112000;28;20277;-68
2022/02/15 06:16:57;;;;;;;3.13;2.30;;;;;;;10.84;52.67;96939.03;5111874;28;20937;-69
2022/02/15 06:19:23;;;;;;;3.73;2.13;;;;;;;10.95;52.31;96944.97;5111502;28;20917;-68
2022/02/15 06:21:49;;;;;;;4.30;2.30;;;;;;;10.97;52.08;96940.34;5110746;27;20572;-68
2022/02/15 06:24:17;;;;;;;2.10;1.90;;;;;;;10.99;51.89;96951.50;5112271;28;20188;-68
2022/02/15 06:26:43;;;;;;;2.53;2.03;;;;;;;10.97;52.11;96954.31;5112347;27;20525;-69
2022/02/15 06:29:09;;;;;;;2.40;1.90;;;;;;;10.96;52.27;96951.84;5111669;28;20794;-68
2022/02/15 06:31:36;;;;;;;2.47;2.00;;;;;;;11.07;52.05;96962.03;5111820;28;20979;-69
2022/02/15 06:34:02;;;;;;;2.83;2.20;;;;;;;11.04;52.26;96965.78;5112497;28;20434;-69
2022/02/15 06:36:27;;;;;;;3.20;1.87;;;;;;;11.04;52.13;96963.16;5112518;28;20430;-69
2022/02/15 06:38:53;;;;;;;2.77;2.57;;;;;;;11.09;52.41;96973.16;5111939;28;20439;-68
2022/02/15 06:41:18;;;;;;;3.83;2.60;;;;;;;11.04;52.53;96976.25;5111886;28;20201;-69
2022/02/15 06:43:43;;;;;;;3.33;2.00;;;;;;;11.04;52.80;96981.50;5111952;28;20335;-69
2022/02/15 06:46:09;;;;;;;4.83;2.87;;;;;;;10.96;53.15;96988.56;5111793;28;20264;-68
2022/02/15 06:48:34;;;;;;;2.43;2.20;;;;;;;11.01;53.43;96986.25;5111654;28;20231;-69
2022/02/15 06:51:00;;;;;;;2.80;2.47;;;;;;;10.99;53.26;96998.72;5112260;27;20173;-69
2022/02/15 06:53:26;;;;;;;3.23;2.83;;;;;;;10.91;53.68;97000.34;5111676;28;20530;-68
2022/02/15 06:55:51;;;;;;;4.60;2.70;;;;;;;10.96;53.77;96999.03;5111283;28;20177;-68
2022/02/15 06:58:17;;;;;;;3.50;2.93;;;;;;;11.04;53.82;97004.31;5111565;28;20203;-68
2022/02/15 07:00:42;;;;;;;3.10;2.50;;;;;;;10.97;54.24;97016.38;5094304;28;20299;-68
2022/02/15 07:03:08;;;;;;;5.07;3.30;;;;;;;10.94;54.75;97008.88;5111692;28;20207;-68
2022/02/15 07:05:33;;;;;;;6.90;3.60;;;;;;;10.97;54.95;97011.16;5111508;28;20194;-67
2022/02/15 07:07:59;;;;;;;4.70;3.10;;;;;;;11.02;55.17;97019.38;5111281;28;20189;-68
2022/02/15 07:10:24;;;;;;;4.03;3.03;;;;;;;10.89;55.52;97015.41;5111073;28;20233;-67
2022/02/15 07:12:49;;;;;;;3.97;3.03;;;;;;;10.99;55.68;97022.31;5111402;28;20644;-67
2022/02/15 07:15:15;;;;;;;3.43;3.13;;;;;;;10.82;56.02;97024.06;5111581;28;20184;-68
2022/02/15 07:17:42;;;;;;;3.97;3.00;;;;;;;10.65;56.12;97033.66;5111195;28;20273;-68
2022/02/15 07:20:08;;;;;;;4.13;3.27;;;;;;;10.77;56.38;97036.84;5111007;28;20600;-67
2022/02/15 07:22:34;;;;;;;3.70;3.10;;;;;;;10.85;55.70;97039.47;5101709;28;20861;-67
2022/02/15 07:25:00;;;;;;;3.33;2.40;;;;;;;10.73;55.69;97044.16;5110407;28;20434;-67
2022/02/15 07:27:26;;;;;;;6.80;2.90;;;;;;;10.77;56.11;97042.06;5111351;28;20419;-67
2022/02/15 07:29:55;;;;;;;5.30;2.77;;;;;;;10.78;56.07;97046.31;5112721;28;20212;-66
2022/02/15 07:32:24;;;;;;;7.50;3.30;;;;;;;10.83;56.34;97044.88;5115676;28;20185;-66
2022/02/15 07:34:53;;;;;;;6.43;3.20;;;;;;;10.86;56.33;97044.53;5115492;28;20788;-66
2022/02/15 07:37:20;;;;;;;8.70;3.90;;;;;;;10.97;56.37;97047.84;5115272;28;20514;-67
2022/02/15 07:39:45;;;;;;;6.03;3.80;;;;;;;11.03;56.12;97058.53;5115086;28;20923;-67
2022/02/15 07:42:11;;;;;;;8.40;3.57;;;;;;;11.10;56.01;97053.47;5115508;28;20507;-67
2022/02/15 07:44:36;;;;;;;6.00;3.03;;;;;;;10.96;55.97;97059.34;5115369;28;20185;-67
2022/02/15 07:47:02;;;;;;;7.50;3.30;;;;;;;11.03;55.20;97069.03;5115353;28;20537;-68
2022/02/15 07:49:29;;;;;;;6.80;2.90;;;;;;;10.97;55.64;97074.91;5114531;28;20202;-67
2022/02/15 07:51:54;;;;;;;5.57;2.83;;;;;;;11.00;55.67;97073.78;5102968;28;20190;-67
2022/02/15 07:54:20;;;;;;;6.40;2.60;;;;;;;11.04;55.16;97078.53;5115438;28;20881;-66
2022/02/15 07:56:49;;;;;;;4.97;2.30;;;;;;;11.01;55.63;97085.91;5104797;28;20181;-68
2022/02/15 07:59:14;;;;;;;4.10;2.50;;;;;;;11.01;55.25;97091.16;5114626;28;20475;-67
2022/02/15 08:01:40;;;;;;;7.53;2.80;;;;;;;11.00;55.44;97092.13;5114309;28;21046;-67
2022/02/15 08:04:05;;;;;;;6.07;2.97;;;;;;;11.00;55.63;97090.34;5115164;28;20188;-69
2022/02/15 08:06:31;;;;;;;3.87;2.63;;;;;;;11.01;55.22;97096.41;5114139;28;20185;-68
2022/02/15 08:08:57;;;;;;;4.67;2.03;;;;;;;10.97;55.09;97090.66;5114209;28;20235;-68
2022/02/15 08:11:24;;;;;;;7.53;2.77;;;;;;;11.08;55.35;97092.19;5114701;28;20214;-68
2022/02/15 08:13:49;;;;;;;6.43;2.40;;;;;;;11.14;55.17;97094.16;5114646;28;20422;-68
2022/02/15 08:16:16;;;;;;;4.50;2.63;;;;;;;11.20;55.14;97098.78;5101056;28;20800;-68
2022/02/15 08:18:41;;;;;;;5.50;2.30;;;;;;;11.21;54.81;97100.41;5113686;28;20178;-68
2022/02/15 08:21:10;;;;;;;4.07;1.70;;;;;;;11.26;55.13;97093.88;5114474;27;20457;-68
2022/02/15 08:23:36;;;;;;;4.60;2.40;;;;;;;11.29;54.85;97098.78;5114534;28;20208;-68
2022/02/15 08:26:02;;;;;;;4.17;2.73;;;;;;;11.23;54.36;97105.50;5104928;28;20961;-68
2022/02/15 08:28:27;;;;;;;3.50;2.50;;;;;;;11.19;54.62;97109.41;5114198;28;20455;-68
2022/02/15 08:30:52;;;;;;;7.90;2.20;;;;;;;11.16;54.53;97120.22;5114523;28;20398;-68
2022/02/15 08:33:18;;;;;;;3.83;2.80;;;;;;;11.11;54.45;97107.56;5114529;28;20268;-68
2022/02/15 08:35:43;;;;;;;7.37;3.00;;;;;;;11.03;54.61;97115.41;5114179;28;20204;-69
2022/02/15 08:38:09;;;;;;;4.20;2.30;;;;;;;11.18;54.22;97118.25;5114306;28;20173;-67
2022/02/15 08:40:35;;;;;;;1.77;1.60;;;;;;;11.19;54.32;97115.50;5114142;28;20700;-67
2022/02/15 08:43:00;;;;;;;5.70;1.50;;;;;;;11.16;54.16;97126.31;5114280;28;20173;-68
2022/02/15 08:45:26;;;;;;;7.47;2.27;;;;;;;11.19;54.14;97123.38;5110621;28;20216;-69
2022/02/15 08:47:51;;;;;;;3.57;1.90;;;;;;;11.30;54.12;97116.19;5113591;28;20174;-68
2022/02/15 08:50:17;;;;;;;4.17;1.93;;;;;;;11.33;53.56;97121.94;5113714;28;20197;-68
2022/02/15 08:52:44;;;;;;;2.43;1.80;;;;;;;11.36;53.53;97126.03;5114318;27;20280;-69
2022/02/15 08:55:09;;;;;;;2.13;1.67;;;;;;;11.28;53.51;97132.06;5113809;28;20268;-68
2022/02/15 08:57:35;;;;;;;3.80;2.37;;;;;;;11.30;53.30;97139.78;5113775;28;20441;-68
2022/02/15 09:00:01;;;;;;;2.90;2.10;;;;;;;11.38;53.55;97139.81;5113616;28;20209;-68
2022/02/15 09:02:27;;;;;;;3.87;2.03;;;;;;;11.47;53.35;97154.59;5113092;28;21165;-67
2022/02/15 09:04:52;;;;;;;6.50;2.20;;;;;;;11.52;53.23;97152.34;5113734;28;20427;-67
2022/02/15 09:07:18;;;;;;;4.43;1.73;;;;;;;11.45;52.98;97153.13;5099953;28;20208;-66
2022/02/15 09:09:44;;;;;;;2.90;1.60;;;;;;;11.53;52.92;97163.63;5113514;28;20232;-68
2022/02/15 09:12:10;;;;;;;2.40;1.70;;;;;;;11.58;52.98;97169.25;5113737;28;20256;-67
2022/02/15 09:14:35;;;;;;;2.93;1.70;;;;;;;11.43;53.16;97173.44;5113516;28;20978;-67
2022/02/15 09:17:01;;;;;;;1.93;1.43;;;;;;;11.50;53.05;97175.28;5110580;28;20200;-67
2022/02/15 09:19:27;;;;;;;2.23;1.63;;;;;;;11.57;53.09;97174.66;5112663;28;20609;-68
2022/02/15 09:21:53;;;;;;;2.93;1.80;;;;;;;11.62;52.94;97164.50;5113938;27;20287;-68
2022/02/15 09:24:19;;;;;;;2.47;1.23;;;;;;;11.67;53.14;97170.91;5113628;28;20455;-68
2022/02/15 09:26:45;;;;;;;2.00;1.33;;;;;;;11.70;52.31;97169.78;5113358;28;20219;-69
2022/02/15 09:29:11;;;;;;;1.33;1.23;;;;;;;11.61;51.99;97168.09;5113046;28;20534;-67
2022/02/15 09:31:38;;;;;;;1.73;1.57;;;;;;;11.76;52.28;97174.38;5113165;28;20172;-67
2022/02/15 09:34:04;;;;;;;3.10;1.87;;;;;;;11.82;51.73;97172.91;5112920;28;20844;-67
2022/02/15 09:36:29;;;;;;;2.17;1.97;;;;;;;11.91;51.68;97176.38;5113252;28;20418;-68
2022/02/15 09:38:55;;;;;;;1.80;1.57;;;;;;;11.96;51.01;97177.53;5113004;28;20850;-66
2022/02/15 09:41:21;;;;;;;1.70;1.53;;;;;;;12.04;51.27;97168.88;5113128;28;20709;-66
2022/02/15 09:43:46;;;;;;;4.20;1.83;;;;;;;12.13;51.41;97172.34;5113106;28;20185;-67
2022/02/15 09:46:13;;;;;;;2.00;1.70;;;;;;;12.22;50.95;97173.19;5112971;28;20676;-67
2022/02/15 09:48:40;;;;;;;2.20;1.93;;;;;;;12.25;50.86;97167.56;5112362;28;20192;-67
2022/02/15 09:51:06;;;;;;;2.13;1.70;;;;;;;12.34;50.09;97166.63;5112947;28;20954;-68
2022/02/15 09:53:32;;;;;;;1.80;1.70;;;;;;;12.54;49.92;97161.00;5096430;28;20484;-67
2022/02/15 09:55:58;;;;;;;1.73;1.63;;;;;;;12.83;49.41;97164.91;5113021;28;20438;-66
2022/02/15 09:58:23;;;;;;;2.17;1.63;;;;;;;13.05;48.71;97177.34;5112897;28;20675;-67
2022/02/15 10:00:50;;;;;;;1.90;1.77;;;;;;;13.14;48.19;97164.16;5112404;28;20207;-68
2022/02/15 10:03:15;;;;;;;2.10;1.90;;;;;;;13.15;47.25;97178.97;5102352;28;20185;-68
2022/02/15 10:05:46;;;;;;;2.00;1.50;;;;;;;13.03;47.00;97181.97;5112680;28;20423;-68
2022/02/15 10:08:12;;;;;;;2.97;2.27;;;;;;;12.91;46.34;97175.41;5112542;28;20204;-68
2022/02/15 10:10:38;;;;;;;2.30;2.10;;;;;;;12.96;46.38;97186.25;5112334;28;20883;-68
2022/02/15 10:13:08;;;;;;;2.60;1.83;;;;;;;12.92;45.70;97195.47;5112574;28;20181;-68
2022/02/15 10:15:41;;;;;;;2.30;2.10;;;;;;;12.76;45.09;97191.06;5112057;28;20199;-68
2022/02/15 10:18:15;;;;;;;3.67;2.20;;;;;;;12.89;45.67;97194.00;5112388;28;20418;-68
2022/02/15 10:20:43;;;;;;;2.40;2.20;;;;;;;12.93;45.27;97204.16;5101650;28;20487;-68
2022/02/15 10:23:11;;;;;;;3.33;2.17;;;;;;;12.76;45.04;97217.34;5112321;28;20926;-68
2022/02/15 10:25:36;;;;;;;2.13;1.90;;;;;;;12.77;44.81;97210.28;5112244;28;20513;-68
2022/02/15 10:28:17;;;;;;;2.28;1.90;;;;;;;12.59;45.08;97219.97;5111234;28;20450;-68
2022/02/15 10:30:47;;;;;;;2.70;2.00;;;;;;;12.64;44.51;97218.69;5112186;28;20250;-68
2022/02/15 10:33:13;;;;;;;6.50;1.70;;;;;;;12.65;44.44;97220.31;5111774;28;20426;-68
2022/02/15 10:35:40;;;;;;;2.33;1.63;;;;;;;12.52;44.76;97224.28;5112097;28;20423;-68
2022/02/15 10:38:06;;;;;;;4.27;1.93;;;;;;;12.44;44.27;97227.72;5112076;28;20496;-67
2022/02/15 10:40:34;;;;;;;4.17;1.70;;;;;;;12.44;44.58;97229.50;5109816;28;20583;-67
2022/02/15 10:42:59;;;;;;;1.93;1.67;;;;;;;12.47;44.51;97221.31;5113175;28;20407;-68
2022/02/15 10:45:28;;;;;;;1.80;1.63;;;;;;;12.40;44.72;97229.00;5112961;28;20939;-68
2022/02/15 10:47:53;;;;;;;2.15;1.77;;;;;;;12.25;44.75;97228.00;5111732;28;20422;-68
2022/02/15 10:50:19;;;;;;;1.87;1.70;;;;;;;12.17;44.98;97233.25;5107507;28;20202;-69
2022/02/15 10:52:44;;;;;;;1.97;1.77;;;;;;;12.13;45.22;97233.56;5112435;28;20181;-69
2022/02/15 10:55:11;;;;;;;1.77;1.60;;;;;;;12.11;45.18;97232.91;5111749;28;20504;-68
2022/02/15 10:57:39;;;;;;;4.80;2.00;;;;;;;12.10;44.76;97228.63;5111970;28;20201;-68
2022/02/15 11:00:12;;;;;;;2.10;1.33;;;;;;;12.06;44.60;97239.63;5111928;27;20779;-68
2022/02/15 11:02:39;;;;;;;1.60;1.50;;;;;;;12.12;44.68;97242.44;5111536;28;20437;-70
2022/02/15 11:05:06;;;;;;;2.30;1.57;;;;;;;12.21;44.82;97247.72;5111092;28;20435;-68
2022/02/15 11:07:33;;;;;;;1.63;1.53;;;;;;;12.24;44.39;97257.91;5111551;28;20912;-68
2022/02/15 11:10:39;;;;;;;2.13;1.30;;;;;;;12.22;44.31;97246.75;5101410;28;20447;-67
2022/02/15 11:13:05;;;;;;;2.47;0.90;;;;;;;12.28;43.95;97251.34;5106634;28;20450;-68
2022/02/15 11:15:32;;;;;;;5.63;1.50;;;;;;;12.40;44.10;97250.03;5111501;28;20862;-68
2022/02/15 11:18:04;;;;;;;2.00;1.70;;;;;;;12.36;43.79;97248.72;5111013;28;20182;-67
2022/02/15 11:20:50;;;;;;;5.43;1.23;;;;;;;12.40;43.81;97249.22;5108548;28;20539;-68
2022/02/15 11:23:22;;;;;;;1.80;1.20;;;;;;;12.51;44.21;97250.69;5111551;28;20433;-68
2022/02/15 11:26:10;;;;;;;4.63;1.60;;;;;;;12.49;43.97;97248.25;5093483;28;20422;-69
2022/02/15 11:28:57;;;;;;;2.97;1.47;;;;;;;12.54;43.39;97250.38;5101118;28;20411;-68
2022/02/15 11:31:40;;;;;;;3.50;2.00;;;;;;;12.57;43.40;97255.31;5113757;28;20419;-69
2022/02/15 11:34:09;;;;;;;3.23;1.60;;;;;;;12.59;42.75;97250.72;5099166;28;20427;-68
2022/02/15 11:36:49;;;;;;;2.23;1.30;;;;;;;12.62;42.64;97260.91;5101460;28;20826;-68